Time;durP1;ratioP1;P1;durP2;ratioP2;P2;SDS_P1;SDS_P2;PMS_P1;PMS_P2;Temp;Humidity;BMP_temperature;BMP_pressure;BME280_temperature;BME280_humidity;BME280_pressure;Samples;Min_cycle;Max_cycle;Signal;HPM_P1;HPM_P2
2022/03/03 00:00:01;;;;;;;32.88;5.85;;;21.60;99.90;;;;;;5001054;28;20031;-68
2022/03/03 00:02:28;;;;;;;36.47;5.38;;;21.70;99.90;;;;;;5003053;28;20483;-67
2022/03/03 00:04:56;;;;;;;29.67;4.68;;;21.80;99.90;;;;;;4994629;28;20037;-67
2022/03/03 00:07:23;;;;;;;22.42;3.15;;;21.80;99.90;;;;;;4995245;28;20010;-67
2022/03/03 00:09:51;;;;;;;19.50;3.20;;;21.60;99.90;;;;;;4996355;28;20524;-67
2022/03/03 00:12:18;;;;;;;23.55;3.13;;;21.50;99.90;;;;;;4997017;28;20030;-67
2022/03/03 00:14:45;;;;;;;23.02;3.22;;;21.60;99.90;;;;;;4997110;28;20038;-67
2022/03/03 00:17:13;;;;;;;29.25;4.03;;;21.80;99.90;;;;;;4999863;28;20030;-67
2022/03/03 00:19:44;;;;;;;19.20;4.05;;;22.00;99.90;;;;;;4993064;28;20027;-67
2022/03/03 00:22:12;;;;;;;23.08;4.07;;;22.10;99.90;;;;;;4999723;28;20030;-67
2022/03/03 00:24:39;;;;;;;18.60;3.40;;;22.20;99.90;;;;;;4997159;28;20019;-67
2022/03/03 00:27:06;;;;;;;20.35;2.83;;;22.10;99.90;;;;;;4997238;28;20046;-67
2022/03/03 00:29:34;;;;;;;20.48;4.13;;;22.10;99.90;;;;;;5000723;28;20026;-67
2022/03/03 00:32:02;;;;;;;23.42;3.60;;;22.20;99.90;;;;;;5001578;28;20057;-67
2022/03/03 00:34:29;;;;;;;21.65;3.08;;;22.30;99.90;;;;;;4998422;28;20023;-67
2022/03/03 00:36:56;;;;;;;20.13;4.30;;;22.30;99.90;;;;;;4991935;28;20061;-67
2022/03/03 00:39:23;;;;;;;30.98;4.85;;;22.40;99.90;;;;;;4995012;28;20528;-67
2022/03/03 00:41:51;;;;;;;16.45;2.65;;;22.50;99.90;;;;;;4995303;28;20084;-66
2022/03/03 00:44:18;;;;;;;20.80;3.90;;;22.40;99.90;;;;;;4998200;28;20023;-66
2022/03/03 00:46:45;;;;;;;23.80;3.78;;;22.50;99.90;;;;;;4993951;28;20077;-66
2022/03/03 00:49:13;;;;;;;31.45;3.70;;;22.50;99.90;;;;;;5005695;28;20061;-66
2022/03/03 00:51:40;;;;;;;24.40;3.47;;;22.40;99.90;;;;;;5005618;28;20038;-66
2022/03/03 00:54:07;;;;;;;18.50;3.97;;;22.40;99.90;;;;;;5013484;28;20082;-65
2022/03/03 00:56:35;;;;;;;26.02;3.10;;;22.30;99.90;;;;;;5017565;28;20002;-65
2022/03/03 00:59:03;;;;;;;15.70;1.85;;;22.30;99.90;;;;;;5016742;28;20034;-65
2022/03/03 01:01:31;;;;;;;23.50;4.00;;;22.40;99.90;;;;;;5019915;28;20010;-65
2022/03/03 01:03:58;;;;;;;21.80;3.00;;;22.50;99.90;;;;;;4999038;28;20031;-66
2022/03/03 01:06:26;;;;;;;16.92;2.25;;;22.70;99.90;;;;;;5009686;28;20017;-65
2022/03/03 01:08:54;;;;;;;16.92;2.97;;;22.80;99.90;;;;;;4996814;28;20034;-66
2022/03/03 01:11:21;;;;;;;21.00;3.28;;;22.90;99.90;;;;;;5006063;28;20026;-66
2022/03/03 01:13:48;;;;;;;22.95;3.97;;;23.10;99.90;;;;;;5008458;28;20030;-67
2022/03/03 01:16:18;;;;;;;15.45;2.90;;;23.20;99.90;;;;;;5014560;28;20018;-65
2022/03/03 01:18:45;;;;;;;15.35;2.00;;;23.20;99.90;;;;;;5012406;28;20034;-65
2022/03/03 01:21:13;;;;;;;16.42;3.45;;;23.20;99.90;;;;;;5005835;28;20387;-63
2022/03/03 01:23:40;;;;;;;15.95;2.38;;;23.10;99.90;;;;;;4992092;28;20098;-63
2022/03/03 01:26:08;;;;;;;18.83;3.42;;;23.00;99.90;;;;;;4994340;28;20117;-63
2022/03/03 01:28:36;;;;;;;14.30;2.13;;;22.80;99.90;;;;;;4996488;28;20082;-64
2022/03/03 01:31:03;;;;;;;10.57;1.92;;;22.80;99.90;;;;;;4997165;28;20031;-64
2022/03/03 01:33:30;;;;;;;10.85;1.65;;;22.80;99.90;;;;;;4994396;28;20062;-64
2022/03/03 01:35:58;;;;;;;12.93;1.98;;;22.70;99.90;;;;;;4995866;28;20023;-63
2022/03/03 01:38:25;;;;;;;9.90;1.88;;;22.70;99.90;;;;;;5010478;28;20062;-64
2022/03/03 01:40:52;;;;;;;10.43;1.27;;;22.90;99.90;;;;;;5032373;28;20078;-63
2022/03/03 01:43:19;;;;;;;14.23;1.70;;;22.90;99.90;;;;;;5031198;28;20029;-64
2022/03/03 01:45:47;;;;;;;14.07;2.75;;;22.90;99.90;;;;;;5033874;28;20030;-64
2022/03/03 01:48:14;;;;;;;13.60;1.65;;;22.80;99.90;;;;;;5035733;28;20048;-65
2022/03/03 01:50:42;;;;;;;9.35;1.50;;;22.80;99.90;;;;;;5029093;28;20086;-65
2022/03/03 01:53:09;;;;;;;13.80;2.35;;;22.80;99.90;;;;;;5016437;28;20021;-65
2022/03/03 01:55:36;;;;;;;13.95;2.45;;;22.70;99.90;;;;;;5014662;28;20019;-65
2022/03/03 01:58:05;;;;;;;10.80;1.80;;;22.70;99.90;;;;;;5013973;28;20058;-65
2022/03/03 02:00:32;;;;;;;9.75;1.92;;;22.70;99.90;;;;;;5013313;28;20042;-65
2022/03/03 02:03:02;;;;;;;9.18;1.75;;;22.70;99.90;;;;;;5007768;28;20027;-65
2022/03/03 02:05:33;;;;;;;11.52;1.60;;;22.70;99.90;;;;;;5025415;28;20036;-65
2022/03/03 02:08:00;;;;;;;18.73;3.45;;;23.20;99.90;;;;;;5033649;28;20046;-65
2022/03/03 02:10:28;;;;;;;13.13;2.25;;;23.50;99.90;;;;;;5024976;28;20026;-65
2022/03/03 02:12:55;;;;;;;17.55;2.83;;;23.70;99.90;;;;;;5014996;28;20031;-65
2022/03/03 02:15:23;;;;;;;15.48;2.63;;;23.80;99.90;;;;;;5016498;28;20050;-65
2022/03/03 02:17:50;;;;;;;16.35;2.63;;;23.80;99.90;;;;;;5014629;28;20041;-65
2022/03/03 02:20:22;;;;;;;22.08;3.28;;;23.80;99.90;;;;;;5011655;28;20054;-65
2022/03/03 02:22:54;;;;;;;15.25;2.42;;;23.60;99.90;;;;;;4995017;28;20026;-64
2022/03/03 02:25:22;;;;;;;12.82;2.22;;;23.50;99.90;;;;;;4996611;28;20028;-64
2022/03/03 02:27:49;;;;;;;13.77;2.25;;;23.60;99.90;;;;;;5005245;28;20046;-64
2022/03/03 02:30:18;;;;;;;15.68;3.08;;;23.50;99.90;;;;;;5011900;28;20042;-65
2022/03/03 02:36:26;;;;;;;9.48;2.13;;;23.60;99.90;;;;;;5004836;28;20029;-64
2022/03/03 02:38:56;;;;;;;15.88;3.03;;;23.80;99.90;;;;;;5010954;28;20045;-65
2022/03/03 02:41:25;;;;;;;9.70;2.40;;;23.90;99.90;;;;;;5011651;28;20041;-65
2022/03/03 02:43:53;;;;;;;20.25;2.85;;;23.90;99.90;;;;;;5014323;28;20387;-65
2022/03/03 02:46:21;;;;;;;13.57;2.15;;;23.90;99.90;;;;;;5013946;28;20149;-65
2022/03/03 02:48:48;;;;;;;12.88;2.42;;;23.80;99.90;;;;;;5009239;28;20137;-64
2022/03/03 02:51:17;;;;;;;10.38;1.88;;;23.70;99.90;;;;;;5008491;28;20094;-65
2022/03/03 02:53:44;;;;;;;13.90;2.10;;;23.70;99.90;;;;;;5009294;28;20109;-64
2022/03/03 02:56:12;;;;;;;16.27;2.35;;;23.90;99.90;;;;;;5012442;28;20093;-65
2022/03/03 02:58:40;;;;;;;5.80;1.10;;;23.90;99.90;;;;;;5011877;28;20251;-64
2022/03/03 03:01:09;;;;;;;8.75;1.05;;;23.60;99.90;;;;;;5011071;28;20475;-65
2022/03/03 03:03:36;;;;;;;13.18;2.15;;;23.00;99.90;;;;;;5007980;28;20026;-65
2022/03/03 03:06:05;;;;;;;6.03;1.50;;;23.00;99.90;;;;;;4998843;28;20030;-64
2022/03/03 03:08:33;;;;;;;9.02;1.50;;;23.00;99.90;;;;;;5008018;28;20038;-65
2022/03/03 03:11:01;;;;;;;8.18;1.27;;;22.80;99.90;;;;;;5008329;28;20050;-64
2022/03/03 03:13:29;;;;;;;10.98;2.40;;;22.70;99.90;;;;;;5004596;28;20034;-64
2022/03/03 03:15:57;;;;;;;10.90;2.38;;;22.70;99.90;;;;;;5006938;28;20444;-65
2022/03/03 03:18:25;;;;;;;13.35;2.60;;;22.80;99.90;;;;;;5003980;28;20475;-65
2022/03/03 03:20:55;;;;;;;14.85;2.72;;;22.80;99.90;;;;;;5002903;28;20026;-64
2022/03/03 03:23:24;;;;;;;20.15;3.33;;;22.80;99.90;;;;;;5002758;28;20046;-65
2022/03/03 03:25:53;;;;;;;17.52;3.47;;;22.80;99.90;;;;;;5003099;28;20033;-65
2022/03/03 03:28:22;;;;;;;16.65;3.55;;;22.80;99.90;;;;;;5008811;28;20046;-65
2022/03/03 03:30:51;;;;;;;14.27;3.40;;;22.70;99.90;;;;;;5012921;28;20038;-65
2022/03/03 03:33:19;;;;;;;17.13;3.00;;;22.80;99.90;;;;;;5007731;28;20102;-65
2022/03/03 03:35:46;;;;;;;20.30;3.75;;;22.90;99.90;;;;;;5023092;28;20056;-65
2022/03/03 03:38:14;;;;;;;26.55;4.05;;;22.90;99.90;;;;;;5007419;28;20050;-65
2022/03/03 03:40:42;;;;;;;18.73;2.97;;;22.90;99.90;;;;;;5006728;28;20394;-64
2022/03/03 03:43:11;;;;;;;21.23;2.88;;;23.00;99.90;;;;;;5005403;28;20030;-64
2022/03/03 03:45:39;;;;;;;21.90;3.70;;;23.00;99.90;;;;;;5008077;28;20041;-64
2022/03/03 03:48:07;;;;;;;19.63;4.20;;;23.10;99.90;;;;;;5002859;28;20094;-65
2022/03/03 03:50:34;;;;;;;26.70;2.92;;;23.00;99.90;;;;;;5002846;28;20030;-64
2022/03/03 03:53:02;;;;;;;20.33;2.97;;;23.00;99.90;;;;;;5005717;28;20113;-65
2022/03/03 03:55:29;;;;;;;17.95;2.88;;;23.10;99.90;;;;;;5008528;28;20034;-64
2022/03/03 03:57:57;;;;;;;12.50;1.75;;;23.10;99.90;;;;;;5006397;28;20026;-64
2022/03/03 04:00:26;;;;;;;11.75;1.58;;;23.10;99.90;;;;;;4999901;28;20022;-64
2022/03/03 04:02:54;;;;;;;13.38;3.03;;;23.30;99.90;;;;;;5005504;28;20045;-64
2022/03/03 04:05:21;;;;;;;15.30;2.47;;;23.40;99.90;;;;;;4994597;28;20037;-65
2022/03/03 04:07:49;;;;;;;15.73;1.98;;;23.40;99.90;;;;;;4997893;28;20034;-65
2022/03/03 04:10:16;;;;;;;14.52;3.20;;;23.10;99.90;;;;;;4999097;28;20383;-65
2022/03/03 04:12:45;;;;;;;13.93;2.38;;;23.20;99.90;;;;;;5002330;28;20030;-65
2022/03/03 04:15:13;;;;;;;9.98;2.22;;;23.40;99.90;;;;;;5016997;28;20033;-65
2022/03/03 04:17:40;;;;;;;12.32;2.63;;;23.50;99.90;;;;;;5000102;28;20015;-65
2022/03/03 04:20:10;;;;;;;16.80;3.08;;;23.60;99.90;;;;;;4999458;28;20038;-65
2022/03/03 04:22:39;;;;;;;14.65;2.22;;;23.40;99.90;;;;;;5001125;28;20042;-65
2022/03/03 04:25:11;;;;;;;9.90;1.77;;;23.20;99.90;;;;;;4988936;28;20037;-65
2022/03/03 04:27:40;;;;;;;10.55;1.92;;;23.00;99.90;;;;;;4994102;28;20046;-65
2022/03/03 04:30:10;;;;;;;10.43;1.85;;;22.90;99.90;;;;;;4985176;28;20110;-65
2022/03/03 04:32:41;;;;;;;15.07;2.88;;;23.00;99.90;;;;;;4993411;28;20062;-65
2022/03/03 04:35:10;;;;;;;14.75;2.35;;;23.00;99.90;;;;;;4991768;28;20022;-64
2022/03/03 04:37:39;;;;;;;13.13;2.72;;;22.90;99.90;;;;;;4993505;28;20080;-64
2022/03/03 04:40:08;;;;;;;18.92;3.28;;;22.90;99.90;;;;;;4990025;28;20019;-65
2022/03/03 04:42:37;;;;;;;14.75;2.13;;;23.00;99.90;;;;;;4992470;28;20038;-65
2022/03/03 04:45:06;;;;;;;22.38;2.85;;;23.10;99.90;;;;;;4984958;28;20113;-64
2022/03/03 04:47:34;;;;;;;19.92;3.40;;;23.30;99.90;;;;;;4995648;28;20022;-64
2022/03/03 04:50:02;;;;;;;19.88;3.47;;;23.50;99.90;;;;;;4991651;28;20042;-64
2022/03/03 04:52:30;;;;;;;19.85;2.97;;;23.70;99.90;;;;;;4992461;28;20053;-64
2022/03/03 04:54:58;;;;;;;15.48;2.42;;;23.80;99.90;;;;;;4992351;28;20058;-64
2022/03/03 04:57:25;;;;;;;18.95;2.72;;;23.70;99.90;;;;;;4989858;28;20074;-64
2022/03/03 04:59:57;;;;;;;15.48;3.03;;;23.50;99.90;;;;;;4991181;28;20166;-65
2022/03/03 05:02:28;;;;;;;19.67;3.30;;;23.50;99.90;;;;;;4991937;28;20399;-65
2022/03/03 05:04:55;;;;;;;20.23;2.97;;;23.50;99.90;;;;;;4997551;28;20399;-66
2022/03/03 05:07:24;;;;;;;19.08;3.95;;;23.60;99.90;;;;;;4979932;28;20026;-65
2022/03/03 05:09:52;;;;;;;23.67;3.95;;;23.80;99.90;;;;;;4995353;28;20479;-65
2022/03/03 05:12:20;;;;;;;19.67;3.33;;;23.80;99.90;;;;;;5007074;28;20038;-65
2022/03/03 05:14:49;;;;;;;21.30;2.92;;;24.00;99.90;;;;;;4993351;28;20368;-64
2022/03/03 05:17:17;;;;;;;16.13;3.13;;;24.10;99.90;;;;;;4989036;28;20156;-66
2022/03/03 05:19:44;;;;;;;24.13;3.42;;;24.20;99.90;;;;;;4993735;28;20046;-66
2022/03/03 05:22:13;;;;;;;18.15;3.03;;;24.20;99.90;;;;;;4994757;28;20100;-67
2022/03/03 05:24:40;;;;;;;20.40;3.20;;;24.20;99.90;;;;;;5011328;28;20054;-67
2022/03/03 05:27:08;;;;;;;21.00;3.50;;;24.20;99.90;;;;;;5009178;28;20102;-67
2022/03/03 05:29:37;;;;;;;22.67;3.55;;;24.20;99.90;;;;;;5006916;28;20101;-67
2022/03/03 05:32:05;;;;;;;11.88;2.50;;;24.20;99.90;;;;;;5017624;28;20030;-66
2022/03/03 05:34:33;;;;;;;9.35;1.35;;;24.00;99.90;;;;;;5001868;28;20026;-65
2022/03/03 05:37:01;;;;;;;8.48;1.67;;;23.60;99.90;;;;;;5001940;28;20053;-62
2022/03/03 05:39:30;;;;;;;15.25;2.13;;;23.10;99.90;;;;;;4989889;28;20023;-62
2022/03/03 05:41:58;;;;;;;17.80;3.60;;;22.90;99.90;;;;;;5015723;28;20022;-62
2022/03/03 05:44:27;;;;;;;19.45;2.55;;;22.60;99.90;;;;;;5004560;28;20090;-61
2022/03/03 05:46:56;;;;;;;17.10;2.92;;;22.40;99.90;;;;;;5019516;28;20034;-60
2022/03/03 05:49:26;;;;;;;21.88;4.05;;;22.20;99.90;;;;;;5021585;28;20040;-60
2022/03/03 05:51:55;;;;;;;26.80;4.60;;;22.20;99.90;;;;;;4976903;28;20038;-61
2022/03/03 05:54:23;;;;;;;25.95;5.05;;;22.30;99.90;;;;;;5005349;28;20057;-61
2022/03/03 05:56:54;;;;;;;30.75;5.85;;;22.30;99.90;;;;;;5007720;28;20030;-61
2022/03/03 05:59:24;;;;;;;30.63;5.03;;;22.50;99.90;;;;;;5003973;28;20026;-60
2022/03/03 06:01:53;;;;;;;24.00;3.80;;;22.60;99.90;;;;;;5003526;28;20435;-61
2022/03/03 06:04:24;;;;;;;29.60;5.25;;;22.60;99.90;;;;;;5004591;28;20030;-61
2022/03/03 06:07:00;;;;;;;21.15;5.15;;;22.60;99.90;;;;;;4989254;28;20030;-62
2022/03/03 06:09:37;;;;;;;18.23;3.92;;;22.70;99.90;;;;;;4995718;28;20035;-62
2022/03/03 06:12:34;;;;;;;22.58;4.15;;;22.90;99.90;;;;;;4991270;28;20023;-63
2022/03/03 06:15:07;;;;;;;28.15;4.35;;;23.00;99.90;;;;;;4988314;28;20047;-62
2022/03/03 06:17:36;;;;;;;26.08;5.20;;;23.20;99.90;;;;;;4995095;28;20026;-63
2022/03/03 06:20:05;;;;;;;24.38;5.80;;;23.30;99.90;;;;;;4992675;28;20092;-63
2022/03/03 06:22:34;;;;;;;26.33;4.65;;;23.30;99.90;;;;;;4992542;28;20494;-64
2022/03/03 06:25:05;;;;;;;30.25;5.88;;;23.40;99.90;;;;;;4988685;28;20045;-64
2022/03/03 06:27:34;;;;;;;25.55;4.72;;;23.50;99.90;;;;;;4979809;28;20043;-62
2022/03/03 06:30:02;;;;;;;31.90;5.43;;;23.40;99.90;;;;;;4991166;28;20034;-62
2022/03/03 06:32:30;;;;;;;23.75;4.38;;;23.40;99.90;;;;;;4992427;28;20038;-63
2022/03/03 06:34:57;;;;;;;26.60;5.82;;;23.30;99.90;;;;;;4996747;28;20065;-63
2022/03/03 06:37:25;;;;;;;17.33;3.60;;;22.90;99.90;;;;;;5013088;28;20087;-63
2022/03/03 06:39:53;;;;;;;18.70;3.90;;;22.60;99.90;;;;;;4992874;28;20445;-63
2022/03/03 06:42:20;;;;;;;18.83;3.35;;;22.50;99.90;;;;;;4972191;28;20407;-63
2022/03/03 06:44:48;;;;;;;24.58;4.40;;;22.50;99.90;;;;;;4990787;28;20077;-63
2022/03/03 06:47:16;;;;;;;27.63;4.93;;;22.60;99.90;;;;;;4999090;28;20022;-63
2022/03/03 06:49:43;;;;;;;21.88;3.38;;;22.60;99.90;;;;;;4993959;28;20030;-64
2022/03/03 06:52:16;;;;;;;31.15;4.78;;;22.60;99.90;;;;;;4992738;28;20104;-64
2022/03/03 06:54:51;;;;;;;35.67;6.28;;;22.70;99.90;;;;;;5006062;28;20037;-64
2022/03/03 06:57:22;;;;;;;35.15;4.75;;;22.70;99.90;;;;;;4972583;28;20023;-63
2022/03/03 06:59:55;;;;;;;28.52;5.68;;;22.80;99.90;;;;;;4984969;28;20126;-62
2022/03/03 07:02:22;;;;;;;31.58;6.00;;;22.80;99.90;;;;;;4999937;28;20033;-63
2022/03/03 07:04:51;;;;;;;22.17;4.30;;;22.80;99.90;;;;;;5001824;28;20161;-63
2022/03/03 07:07:21;;;;;;;31.85;5.00;;;22.90;99.90;;;;;;4994665;28;20058;-63
2022/03/03 07:09:49;;;;;;;23.60;5.00;;;23.00;99.90;;;;;;4999261;28;20047;-63
2022/03/03 07:12:17;;;;;;;29.65;6.00;;;23.00;99.90;;;;;;4995890;28;20049;-63
2022/03/03 07:14:45;;;;;;;25.67;4.63;;;23.10;99.90;;;;;;5003556;28;20028;-63
2022/03/03 07:17:24;;;;;;;21.17;3.60;;;23.00;99.90;;;;;;4998653;28;20038;-64
2022/03/03 07:20:07;;;;;;;24.42;4.75;;;23.00;99.90;;;;;;4992863;28;20498;-63
2022/03/03 07:22:45;;;;;;;21.80;5.40;;;23.00;99.90;;;;;;4994830;28;20472;-64
2022/03/03 07:25:15;;;;;;;21.83;4.45;;;23.00;99.90;;;;;;4991190;28;20548;-64
2022/03/03 07:27:46;;;;;;;26.45;4.32;;;23.00;99.90;;;;;;4989815;28;20110;-64
2022/03/03 07:30:16;;;;;;;21.77;4.75;;;22.90;99.90;;;;;;4993048;28;20040;-64
2022/03/03 07:33:08;;;;;;;17.58;3.75;;;22.90;99.90;;;;;;4992414;28;20092;-64
2022/03/03 07:35:36;;;;;;;24.40;4.47;;;22.90;99.90;;;;;;4990861;28;20490;-64
2022/03/03 07:38:19;;;;;;;21.77;4.00;;;22.90;99.90;;;;;;4993019;28;20399;-64
2022/03/03 07:40:49;;;;;;;22.60;4.40;;;23.00;99.90;;;;;;4995330;28;20046;-66
2022/03/03 07:43:19;;;;;;;19.95;3.53;;;23.00;99.90;;;;;;4997017;28;20092;-67
2022/03/03 07:45:47;;;;;;;21.63;3.65;;;23.00;99.90;;;;;;4995309;28;20511;-67
2022/03/03 07:48:15;;;;;;;17.13;3.40;;;22.90;99.90;;;;;;5000210;28;20482;-67
2022/03/03 07:50:43;;;;;;;21.55;3.33;;;22.90;99.90;;;;;;5002002;28;20426;-67
2022/03/03 07:53:12;;;;;;;16.48;2.92;;;22.90;99.90;;;;;;5010499;28;20402;-67
2022/03/03 07:55:54;;;;;;;17.15;3.60;;;22.90;99.90;;;;;;4983087;28;20380;-67
2022/03/03 07:58:27;;;;;;;23.27;4.15;;;22.90;99.90;;;;;;5000033;28;20033;-67
2022/03/03 08:01:00;;;;;;;21.63;4.17;;;22.90;99.90;;;;;;4994060;28;20087;-67
2022/03/03 08:03:28;;;;;;;22.00;3.58;;;22.90;99.90;;;;;;4992515;28;20756;-67
2022/03/03 08:05:58;;;;;;;17.52;3.22;;;22.90;99.90;;;;;;5002599;28;20027;-67
2022/03/03 08:08:31;;;;;;;15.00;3.10;;;22.90;99.90;;;;;;5009715;28;20192;-67
2022/03/03 08:11:03;;;;;;;22.13;3.88;;;22.80;99.90;;;;;;5000855;28;20038;-67
2022/03/03 08:13:31;;;;;;;15.02;3.08;;;22.90;99.90;;;;;;5002455;28;20038;-67
2022/03/03 08:15:59;;;;;;;20.70;3.80;;;22.70;99.90;;;;;;5004024;28;20491;-67
2022/03/03 08:18:37;;;;;;;21.63;3.60;;;22.60;99.90;;;;;;5001820;28;20539;-67
2022/03/03 08:21:06;;;;;;;21.02;3.58;;;22.60;99.90;;;;;;4991668;28;20659;-67
2022/03/03 08:23:34;;;;;;;19.67;4.00;;;22.50;99.90;;;;;;5001916;28;20022;-67
2022/03/03 08:26:03;;;;;;;20.35;4.00;;;22.40;99.90;;;;;;4994609;28;20084;-67
2022/03/03 08:28:32;;;;;;;14.63;3.00;;;22.40;99.90;;;;;;4993449;28;20050;-67
2022/03/03 08:31:05;;;;;;;17.98;3.63;;;22.30;99.90;;;;;;4994317;28;20048;-67
2022/03/03 08:33:38;;;;;;;19.88;3.50;;;22.20;99.90;;;;;;5011601;28;20021;-66
2022/03/03 08:36:26;;;;;;;17.92;3.30;;;22.00;99.90;;;;;;4997008;28;20026;-67
2022/03/03 08:38:56;;;;;;;21.13;2.53;;;22.00;99.90;;;;;;4997797;28;20123;-67
2022/03/03 08:41:24;;;;;;;16.65;2.72;;;21.90;99.90;;;;;;4995315;28;20022;-67
2022/03/03 08:43:53;;;;;;;21.08;3.72;;;21.90;99.90;;;;;;4995764;28;20088;-67
2022/03/03 08:46:26;;;;;;;25.25;4.80;;;21.80;99.90;;;;;;4993398;28;20045;-67
2022/03/03 08:48:59;;;;;;;23.33;4.43;;;21.90;99.90;;;;;;4998456;28;20022;-67
2022/03/03 08:51:27;;;;;;;32.33;6.35;;;21.90;99.90;;;;;;4986824;28;20371;-67
2022/03/03 08:53:54;;;;;;;20.63;3.95;;;21.90;99.90;;;;;;5003943;28;20053;-67
2022/03/03 08:56:25;;;;;;;28.13;4.20;;;21.80;99.90;;;;;;4994504;28;20033;-67
2022/03/03 08:58:54;;;;;;;20.98;3.72;;;21.80;99.90;;;;;;4996708;28;20628;-67
2022/03/03 09:01:22;;;;;;;22.25;3.30;;;21.80;99.90;;;;;;4994980;28;20040;-67
2022/03/03 09:03:49;;;;;;;29.98;4.07;;;21.70;99.90;;;;;;4989819;28;20045;-66
2022/03/03 09:06:19;;;;;;;12.57;2.05;;;21.70;99.90;;;;;;5004345;28;20038;-67
2022/03/03 09:08:47;;;;;;;18.88;2.80;;;21.60;99.90;;;;;;4996349;28;20118;-67
2022/03/03 09:11:16;;;;;;;19.80;3.50;;;21.60;99.90;;;;;;4997231;28;20098;-67
2022/03/03 09:13:43;;;;;;;18.10;3.95;;;21.60;99.90;;;;;;5016698;28;20435;-66
2022/03/03 09:16:10;;;;;;;22.15;3.35;;;21.60;99.90;;;;;;5014955;28;20057;-66
2022/03/03 09:18:38;;;;;;;23.45;4.85;;;21.60;99.90;;;;;;4990759;28;20153;-66
2022/03/03 09:21:05;;;;;;;35.42;5.90;;;21.60;99.90;;;;;;4974297;28;20019;-66
2022/03/03 09:23:42;;;;;;;26.90;4.38;;;21.60;99.90;;;;;;4982915;28;20019;-67
2022/03/03 09:26:09;;;;;;;22.52;4.93;;;21.60;99.90;;;;;;4997799;28;20105;-66
2022/03/03 09:28:36;;;;;;;26.77;4.22;;;21.70;99.90;;;;;;5001819;28;20482;-66
2022/03/03 09:31:04;;;;;;;29.08;4.43;;;21.70;99.90;;;;;;5001797;28;20037;-66
2022/03/03 09:33:31;;;;;;;22.88;3.58;;;21.60;99.90;;;;;;4992297;28;20038;-66
2022/03/03 09:35:58;;;;;;;19.83;3.28;;;21.70;99.90;;;;;;4997547;28;20064;-66
2022/03/03 09:38:26;;;;;;;19.85;3.00;;;21.70;99.90;;;;;;5000819;28;20033;-66
2022/03/03 09:40:53;;;;;;;18.67;3.03;;;21.70;99.90;;;;;;4993529;28;20069;-67
2022/03/03 09:43:21;;;;;;;17.38;2.90;;;21.70;99.90;;;;;;5000706;28;20019;-66
2022/03/03 09:45:48;;;;;;;26.70;3.90;;;21.80;99.90;;;;;;4986824;28;20105;-66
2022/03/03 09:48:15;;;;;;;18.65;3.80;;;21.80;99.90;;;;;;5007997;28;20015;-66
2022/03/03 09:50:43;;;;;;;21.23;3.30;;;21.70;99.90;;;;;;4994445;28;20030;-66
2022/03/03 09:53:13;;;;;;;16.08;3.22;;;21.70;99.90;;;;;;4994035;28;20593;-66
2022/03/03 09:55:42;;;;;;;21.55;3.03;;;21.60;99.90;;;;;;4997886;28;20043;-66
2022/03/03 09:58:09;;;;;;;11.27;2.15;;;21.70;99.90;;;;;;4982721;28;20462;-66
2022/03/03 10:00:40;;;;;;;16.20;2.58;;;21.70;99.90;;;;;;4989067;28;20479;-67
2022/03/03 10:03:14;;;;;;;23.00;3.05;;;21.70;99.90;;;;;;4998898;28;20438;-67
2022/03/03 10:05:48;;;;;;;;;;;21.60;99.90;;;;;;4988705;28;20371;-67
2022/03/03 10:08:19;;;;;;;22.17;3.00;;;21.60;99.90;;;;;;4995004;28;20297;-67
2022/03/03 10:10:52;;;;;;;17.83;3.25;;;21.60;99.90;;;;;;4990342;28;20035;-67
2022/03/03 10:13:20;;;;;;;18.15;2.92;;;21.60;99.90;;;;;;4982729;28;20109;-67
2022/03/03 10:15:55;;;;;;;9.48;1.73;;;21.50;99.90;;;;;;5009430;28;20037;-67
2022/03/03 10:18:23;;;;;;;13.20;2.15;;;21.40;99.90;;;;;;4993991;28;20092;-66
2022/03/03 10:21:05;;;;;;;8.65;1.23;;;21.30;99.90;;;;;;4992517;28;20487;-67
2022/03/03 10:23:35;;;;;;;9.30;1.60;;;21.30;99.90;;;;;;4991962;28;20073;-66
2022/03/03 10:26:07;;;;;;;10.90;2.03;;;21.30;99.90;;;;;;4991366;28;20030;-66
2022/03/03 10:28:36;;;;;;;13.07;1.90;;;21.40;99.90;;;;;;4990625;28;20051;-66
2022/03/03 10:31:09;;;;;;;17.25;2.63;;;21.40;99.90;;;;;;4996869;28;20490;-66
2022/03/03 10:33:45;;;;;;;17.88;3.20;;;21.50;99.90;;;;;;5000645;28;20052;-66
2022/03/03 10:36:24;;;;;;;20.10;3.53;;;21.60;99.90;;;;;;5004201;28;20056;-68
2022/03/03 10:38:57;;;;;;;18.75;3.45;;;21.60;99.90;;;;;;5006458;28;20025;-68
2022/03/03 10:41:34;;;;;;;16.63;3.95;;;21.60;99.90;;;;;;5014961;28;20030;-67
2022/03/03 10:44:04;;;;;;;23.60;3.97;;;21.60;99.90;;;;;;5016326;28;20125;-67
2022/03/03 10:46:33;;;;;;;28.10;4.40;;;21.60;99.90;;;;;;5008590;28;20036;-66
2022/03/03 10:49:20;;;;;;;20.98;4.35;;;21.60;99.90;;;;;;5003011;28;20023;-66
2022/03/03 10:51:48;;;;;;;22.85;4.53;;;21.50;99.90;;;;;;5000368;28;20116;-67
2022/03/03 10:54:16;;;;;;;22.98;3.53;;;21.60;99.90;;;;;;4998992;28;20617;-66
2022/03/03 10:56:48;;;;;;;25.42;3.25;;;21.60;99.90;;;;;;4999326;28;20027;-66
2022/03/03 10:59:41;;;;;;;21.17;4.07;;;21.60;99.90;;;;;;5001005;28;20031;-66
2022/03/03 11:02:11;;;;;;;21.40;4.25;;;21.60;99.90;;;;;;5001766;28;21308;-66
2022/03/03 11:04:41;;;;;;;24.75;4.57;;;21.60;99.90;;;;;;5001169;28;20022;-66
2022/03/03 11:07:09;;;;;;;22.58;5.13;;;21.60;99.90;;;;;;4998571;28;20034;-66
2022/03/03 11:09:40;;;;;;;22.15;4.18;;;21.60;99.90;;;;;;4997442;28;20467;-67
2022/03/03 11:12:08;;;;;;;22.70;3.63;;;21.60;99.90;;;;;;4992436;28;20053;-66
2022/03/03 11:14:36;;;;;;;27.08;4.88;;;21.70;99.90;;;;;;4995404;28;20049;-67
2022/03/03 11:17:06;;;;;;;26.98;4.05;;;21.60;99.90;;;;;;5014327;28;20026;-66
2022/03/03 11:19:33;;;;;;;23.42;4.25;;;21.70;99.90;;;;;;4995170;28;20038;-66
2022/03/03 11:22:00;;;;;;;30.23;6.65;;;21.70;99.90;;;;;;5004329;28;20034;-67
2022/03/03 11:24:29;;;;;;;30.08;4.43;;;21.80;99.90;;;;;;4997095;28;20080;-67
2022/03/03 11:27:00;;;;;;;30.10;5.20;;;21.80;99.90;;;;;;5007516;28;20062;-66
2022/03/03 11:29:29;;;;;;;31.98;5.68;;;21.80;99.90;;;;;;5000692;28;20030;-67
2022/03/03 11:32:06;;;;;;;25.23;4.10;;;21.90;99.90;;;;;;5006762;28;20037;-67
2022/03/03 11:34:33;;;;;;;32.30;5.72;;;21.90;99.90;;;;;;5010376;28;20049;-67
2022/03/03 11:37:17;;;;;;;32.42;4.95;;;21.90;99.90;;;;;;4995297;28;20077;-68
2022/03/03 11:39:49;;;;;;;28.08;5.10;;;21.90;99.90;;;;;;4994485;28;20014;-67
2022/03/03 11:42:32;;;;;;;32.65;6.38;;;21.90;99.90;;;;;;4990859;28;20031;-67
2022/03/03 11:45:17;;;;;;;28.85;5.35;;;21.90;99.90;;;;;;4983291;28;20025;-67
2022/03/03 11:47:47;;;;;;;33.10;6.63;;;21.90;99.90;;;;;;4994238;28;20026;-67
2022/03/03 11:50:28;;;;;;;29.17;4.68;;;21.90;99.90;;;;;;4988431;28;20034;-67
2022/03/03 11:52:59;;;;;;;31.83;5.82;;;21.90;99.90;;;;;;4991422;28;20043;-67
2022/03/03 11:55:36;;;;;;;29.65;6.05;;;21.90;99.90;;;;;;5000986;28;20018;-67
2022/03/03 11:58:26;;;;;;;33.10;5.43;;;22.00;99.90;;;;;;4984676;28;20065;-67
2022/03/03 12:01:05;;;;;;;39.83;5.32;;;21.90;99.90;;;;;;4993705;28;20034;-67
2022/03/03 12:04:03;;;;;;;38.92;6.13;;;21.90;99.90;;;;;;4985835;28;20019;-67
2022/03/03 12:06:46;;;;;;;29.52;5.10;;;21.90;99.90;;;;;;4989733;28;20121;-66
2022/03/03 12:09:17;;;;;;;33.78;5.28;;;21.90;99.90;;;;;;4995731;28;20505;-67
2022/03/03 12:11:45;;;;;;;22.85;3.97;;;21.90;99.90;;;;;;5003948;28;20038;-67
2022/03/03 12:14:35;;;;;;;20.48;4.10;;;21.80;99.90;;;;;;4997241;28;20030;-67
2022/03/03 12:17:38;;;;;;;23.90;3.85;;;21.70;99.90;;;;;;5003117;28;20034;-67
2022/03/03 12:20:31;;;;;;;23.52;4.38;;;21.70;99.90;;;;;;4995905;28;20018;-67
2022/03/03 12:23:30;;;;;;;27.08;3.65;;;21.70;99.90;;;;;;5002763;28;20033;-67
2022/03/03 12:26:00;;;;;;;29.25;5.50;;;21.70;99.90;;;;;;5024929;28;20038;-66
2022/03/03 12:28:35;;;;;;;23.15;4.05;;;21.70;99.90;;;;;;5009002;28;20057;-66
2022/03/03 12:31:20;;;;;;;25.88;5.30;;;21.70;99.90;;;;;;5011981;28;20030;-66
2022/03/03 12:34:06;;;;;;;29.95;5.35;;;21.70;99.90;;;;;;5004715;28;20046;-66
2022/03/03 12:36:44;;;;;;;31.83;5.35;;;21.70;99.90;;;;;;5010569;28;20026;-66
2022/03/03 12:39:12;;;;;;;22.50;4.25;;;21.70;99.90;;;;;;5007179;28;20053;-66
2022/03/03 12:41:40;;;;;;;35.45;7.68;;;21.60;99.90;;;;;;5005922;28;20045;-66
2022/03/03 12:44:13;;;;;;;28.15;5.03;;;21.70;99.90;;;;;;5006865;28;20506;-66
2022/03/03 12:46:44;;;;;;;31.93;4.40;;;21.70;99.90;;;;;;5033582;28;20391;-66
2022/03/03 12:49:14;;;;;;;32.10;4.72;;;21.70;99.90;;;;;;5008465;28;20023;-66
2022/03/03 12:51:47;;;;;;;31.55;6.88;;;21.80;99.90;;;;;;5022434;28;20034;-66
2022/03/03 12:54:18;;;;;;;36.50;5.50;;;21.80;99.90;;;;;;5009136;28;20478;-66
2022/03/03 12:57:03;;;;;;;37.13;6.50;;;21.80;99.90;;;;;;5005456;28;20033;-66